sensor_id;sensor_type;location;lat;lon;timestamp;P1;durP1;ratioP1;P2;durP2;ratioP2
10446;SDS011;5271;44.422;26.092;2023-03-21T00:02:19;0.93;;;0.93;;
10446;SDS011;5271;44.422;26.092;2023-03-21T00:04:48;0.97;;;0.97;;
10446;SDS011;5271;44.422;26.092;2023-03-21T00:07:16;1.00;;;1.00;;
10446;SDS011;5271;44.422;26.092;2023-03-21T00:09:43;1.00;;;1.00;;
10446;SDS011;5271;44.422;26.092;2023-03-21T00:12:10;1.00;;;1.00;;
10446;SDS011;5271;44.422;26.092;2023-03-21T00:14:38;1.00;;;1.00;;
10446;SDS011;5271;44.422;26.092;2023-03-21T00:17:05;1.00;;;1.00;;
10446;SDS011;5271;44.422;26.092;2023-03-21T00:19:32;1.00;;;1.00;;
10446;SDS011;5271;44.422;26.092;2023-03-21T00:22:02;0.90;;;0.90;;
10446;SDS011;5271;44.422;26.092;2023-03-21T00:24:31;1.00;;;1.00;;
10446;SDS011;5271;44.422;26.092;2023-03-21T00:26:58;0.90;;;0.90;;
10446;SDS011;5271;44.422;26.092;2023-03-21T00:29:25;1.00;;;1.00;;
10446;SDS011;5271;44.422;26.092;2023-03-21T00:31:51;1.00;;;1.00;;
10446;SDS011;5271;44.422;26.092;2023-03-21T00:34:18;1.00;;;1.00;;
10446;SDS011;5271;44.422;26.092;2023-03-21T00:36:45;1.00;;;1.00;;
10446;SDS011;5271;44.422;26.092;2023-03-21T00:39:12;1.00;;;1.00;;
10446;SDS011;5271;44.422;26.092;2023-03-21T00:41:40;1.00;;;1.00;;
10446;SDS011;5271;44.422;26.092;2023-03-21T00:44:07;1.10;;;1.10;;
10446;SDS011;5271;44.422;26.092;2023-03-21T00:46:35;1.00;;;1.00;;
10446;SDS011;5271;44.422;26.092;2023-03-21T00:49:02;1.00;;;1.00;;
10446;SDS011;5271;44.422;26.092;2023-03-21T00:51:29;1.00;;;1.00;;
10446;SDS011;5271;44.422;26.092;2023-03-21T00:53:57;1.10;;;1.10;;
10446;SDS011;5271;44.422;26.092;2023-03-21T00:56:24;1.00;;;1.00;;
10446;SDS011;5271;44.422;26.092;2023-03-21T00:58:52;1.00;;;1.00;;
10446;SDS011;5271;44.422;26.092;2023-03-21T01:01:19;1.10;;;1.10;;
10446;SDS011;5271;44.422;26.092;2023-03-21T01:03:47;1.10;;;1.10;;
10446;SDS011;5271;44.422;26.092;2023-03-21T01:06:28;1.10;;;1.10;;
10446;SDS011;5271;44.422;26.092;2023-03-21T01:08:55;1.10;;;1.10;;
10446;SDS011;5271;44.422;26.092;2023-03-21T01:11:22;1.10;;;1.10;;
10446;SDS011;5271;44.422;26.092;2023-03-21T01:13:51;1.00;;;1.00;;
10446;SDS011;5271;44.422;26.092;2023-03-21T01:16:20;1.00;;;1.00;;
10446;SDS011;5271;44.422;26.092;2023-03-21T01:18:47;1.10;;;1.10;;
10446;SDS011;5271;44.422;26.092;2023-03-21T01:21:13;1.00;;;1.00;;
10446;SDS011;5271;44.422;26.092;2023-03-21T01:23:40;1.00;;;1.00;;
10446;SDS011;5271;44.422;26.092;2023-03-21T01:26:08;1.00;;;1.00;;
10446;SDS011;5271;44.422;26.092;2023-03-21T01:28:36;1.00;;;1.00;;
10446;SDS011;5271;44.422;26.092;2023-03-21T01:31:06;1.10;;;1.10;;
10446;SDS011;5271;44.422;26.092;2023-03-21T01:33:34;1.03;;;1.03;;
10446;SDS011;5271;44.422;26.092;2023-03-21T01:36:01;1.03;;;1.03;;
10446;SDS011;5271;44.422;26.092;2023-03-21T01:38:28;1.00;;;1.00;;
10446;SDS011;5271;44.422;26.092;2023-03-21T01:40:55;1.10;;;1.10;;
10446;SDS011;5271;44.422;26.092;2023-03-21T01:43:25;1.10;;;1.10;;
10446;SDS011;5271;44.422;26.092;2023-03-21T01:48:57;1.10;;;1.10;;
10446;SDS011;5271;44.422;26.092;2023-03-21T01:51:27;1.00;;;1.00;;
10446;SDS011;5271;44.422;26.092;2023-03-21T01:53:55;1.10;;;1.10;;
10446;SDS011;5271;44.422;26.092;2023-03-21T01:56:25;1.10;;;1.10;;
10446;SDS011;5271;44.422;26.092;2023-03-21T01:58:55;1.10;;;1.10;;
10446;SDS011;5271;44.422;26.092;2023-03-21T02:01:28;1.10;;;1.10;;
10446;SDS011;5271;44.422;26.092;2023-03-21T02:04:00;1.10;;;1.10;;
10446;SDS011;5271;44.422;26.092;2023-03-21T02:06:29;1.10;;;1.10;;
10446;SDS011;5271;44.422;26.092;2023-03-21T02:09:02;1.10;;;1.10;;
10446;SDS011;5271;44.422;26.092;2023-03-21T02:11:33;1.10;;;1.10;;
10446;SDS011;5271;44.422;26.092;2023-03-21T02:14:02;1.10;;;1.10;;
10446;SDS011;5271;44.422;26.092;2023-03-21T02:16:33;1.10;;;1.10;;
10446;SDS011;5271;44.422;26.092;2023-03-21T02:19:18;1.00;;;1.00;;
10446;SDS011;5271;44.422;26.092;2023-03-21T02:25:20;1.20;;;1.20;;
10446;SDS011;5271;44.422;26.092;2023-03-21T02:28:18;1.10;;;1.10;;
10446;SDS011;5271;44.422;26.092;2023-03-21T02:31:04;1.20;;;1.20;;
10446;SDS011;5271;44.422;26.092;2023-03-21T02:36:51;1.20;;;1.20;;
10446;SDS011;5271;44.422;26.092;2023-03-21T02:39:23;1.10;;;1.10;;
10446;SDS011;5271;44.422;26.092;2023-03-21T02:41:56;1.10;;;1.10;;
10446;SDS011;5271;44.422;26.092;2023-03-21T02:44:31;1.20;;;1.20;;
10446;SDS011;5271;44.422;26.092;2023-03-21T02:47:06;1.10;;;1.10;;
10446;SDS011;5271;44.422;26.092;2023-03-21T02:49:38;1.10;;;1.10;;
10446;SDS011;5271;44.422;26.092;2023-03-21T02:52:11;1.10;;;1.10;;
10446;SDS011;5271;44.422;26.092;2023-03-21T02:54:41;1.10;;;1.10;;
10446;SDS011;5271;44.422;26.092;2023-03-21T02:57:09;1.10;;;1.10;;
10446;SDS011;5271;44.422;26.092;2023-03-21T02:59:36;1.20;;;1.20;;
10446;SDS011;5271;44.422;26.092;2023-03-21T03:02:04;1.20;;;1.20;;
10446;SDS011;5271;44.422;26.092;2023-03-21T03:04:31;1.10;;;1.10;;
10446;SDS011;5271;44.422;26.092;2023-03-21T03:07:04;1.10;;;1.10;;
10446;SDS011;5271;44.422;26.092;2023-03-21T03:09:46;1.10;;;1.10;;
10446;SDS011;5271;44.422;26.092;2023-03-21T03:12:42;1.20;;;1.20;;
10446;SDS011;5271;44.422;26.092;2023-03-21T03:15:19;1.20;;;1.20;;
10446;SDS011;5271;44.422;26.092;2023-03-21T03:17:58;1.20;;;1.20;;
10446;SDS011;5271;44.422;26.092;2023-03-21T03:20:36;1.10;;;1.10;;
10446;SDS011;5271;44.422;26.092;2023-03-21T03:23:15;1.10;;;1.10;;
10446;SDS011;5271;44.422;26.092;2023-03-21T03:25:49;1.10;;;1.10;;
10446;SDS011;5271;44.422;26.092;2023-03-21T03:28:19;1.20;;;1.20;;
10446;SDS011;5271;44.422;26.092;2023-03-21T03:30:50;1.20;;;1.20;;
10446;SDS011;5271;44.422;26.092;2023-03-21T03:33:19;1.30;;;1.30;;
10446;SDS011;5271;44.422;26.092;2023-03-21T03:35:47;1.20;;;1.20;;
10446;SDS011;5271;44.422;26.092;2023-03-21T03:38:18;1.20;;;1.20;;
10446;SDS011;5271;44.422;26.092;2023-03-21T03:40:48;1.10;;;1.10;;
10446;SDS011;5271;44.422;26.092;2023-03-21T03:43:20;1.10;;;1.10;;
10446;SDS011;5271;44.422;26.092;2023-03-21T03:45:52;1.10;;;1.10;;
10446;SDS011;5271;44.422;26.092;2023-03-21T03:48:23;1.20;;;1.20;;
10446;SDS011;5271;44.422;26.092;2023-03-21T03:50:53;1.20;;;1.20;;
10446;SDS011;5271;44.422;26.092;2023-03-21T03:53:28;1.20;;;1.20;;
10446;SDS011;5271;44.422;26.092;2023-03-21T03:55:59;1.10;;;1.10;;
10446;SDS011;5271;44.422;26.092;2023-03-21T03:58:26;1.10;;;1.10;;
10446;SDS011;5271;44.422;26.092;2023-03-21T04:00:55;1.20;;;1.20;;
10446;SDS011;5271;44.422;26.092;2023-03-21T04:03:23;1.10;;;1.10;;
10446;SDS011;5271;44.422;26.092;2023-03-21T04:05:50;1.20;;;1.20;;
10446;SDS011;5271;44.422;26.092;2023-03-21T04:08:18;1.20;;;1.20;;
10446;SDS011;5271;44.422;26.092;2023-03-21T04:10:48;1.20;;;1.20;;
10446;SDS011;5271;44.422;26.092;2023-03-21T04:13:15;1.20;;;1.20;;
10446;SDS011;5271;44.422;26.092;2023-03-21T04:15:42;1.20;;;1.20;;
10446;SDS011;5271;44.422;26.092;2023-03-21T04:18:09;1.03;;;1.03;;
10446;SDS011;5271;44.422;26.092;2023-03-21T04:20:36;1.10;;;1.10;;
10446;SDS011;5271;44.422;26.092;2023-03-21T04:23:03;1.20;;;1.20;;
10446;SDS011;5271;44.422;26.092;2023-03-21T04:25:32;1.20;;;1.20;;
10446;SDS011;5271;44.422;26.092;2023-03-21T04:28:00;1.13;;;1.13;;
10446;SDS011;5271;44.422;26.092;2023-03-21T04:30:27;1.20;;;1.20;;
10446;SDS011;5271;44.422;26.092;2023-03-21T04:32:58;1.10;;;1.10;;
10446;SDS011;5271;44.422;26.092;2023-03-21T04:35:25;1.10;;;1.10;;
10446;SDS011;5271;44.422;26.092;2023-03-21T04:37:52;1.30;;;1.30;;
10446;SDS011;5271;44.422;26.092;2023-03-21T04:40:20;1.17;;;1.17;;
10446;SDS011;5271;44.422;26.092;2023-03-21T04:42:48;1.20;;;1.20;;
10446;SDS011;5271;44.422;26.092;2023-03-21T04:45:17;1.10;;;1.10;;
10446;SDS011;5271;44.422;26.092;2023-03-21T04:47:43;1.30;;;1.30;;
10446;SDS011;5271;44.422;26.092;2023-03-21T04:50:11;1.20;;;1.20;;
10446;SDS011;5271;44.422;26.092;2023-03-21T04:52:38;1.10;;;1.10;;
10446;SDS011;5271;44.422;26.092;2023-03-21T04:55:05;1.10;;;1.10;;
10446;SDS011;5271;44.422;26.092;2023-03-21T04:57:34;1.20;;;1.20;;
10446;SDS011;5271;44.422;26.092;2023-03-21T05:00:02;1.20;;;1.20;;
10446;SDS011;5271;44.422;26.092;2023-03-21T05:02:34;1.20;;;1.20;;
10446;SDS011;5271;44.422;26.092;2023-03-21T05:05:01;1.20;;;1.20;;
10446;SDS011;5271;44.422;26.092;2023-03-21T05:07:29;1.23;;;1.23;;
10446;SDS011;5271;44.422;26.092;2023-03-21T05:09:56;1.20;;;1.20;;
10446;SDS011;5271;44.422;26.092;2023-03-21T05:12:23;1.20;;;1.20;;
10446;SDS011;5271;44.422;26.092;2023-03-21T05:14:50;1.20;;;1.20;;
10446;SDS011;5271;44.422;26.092;2023-03-21T05:17:17;1.30;;;1.30;;
10446;SDS011;5271;44.422;26.092;2023-03-21T05:19:48;1.30;;;1.30;;
10446;SDS011;5271;44.422;26.092;2023-03-21T05:22:16;1.37;;;1.37;;
10446;SDS011;5271;44.422;26.092;2023-03-21T05:24:44;1.20;;;1.20;;
10446;SDS011;5271;44.422;26.092;2023-03-21T05:27:14;1.30;;;1.30;;
10446;SDS011;5271;44.422;26.092;2023-03-21T05:29:58;1.20;;;1.20;;
10446;SDS011;5271;44.422;26.092;2023-03-21T05:32:25;1.30;;;1.30;;
10446;SDS011;5271;44.422;26.092;2023-03-21T05:34:53;1.30;;;1.30;;
10446;SDS011;5271;44.422;26.092;2023-03-21T05:37:20;1.30;;;1.30;;
10446;SDS011;5271;44.422;26.092;2023-03-21T05:39:47;1.30;;;1.30;;
10446;SDS011;5271;44.422;26.092;2023-03-21T05:42:14;1.20;;;1.20;;
10446;SDS011;5271;44.422;26.092;2023-03-21T05:44:42;1.30;;;1.30;;
10446;SDS011;5271;44.422;26.092;2023-03-21T05:47:09;1.30;;;1.30;;
10446;SDS011;5271;44.422;26.092;2023-03-21T05:49:36;1.20;;;1.20;;
10446;SDS011;5271;44.422;26.092;2023-03-21T05:52:04;1.30;;;1.30;;
10446;SDS011;5271;44.422;26.092;2023-03-21T05:54:31;1.30;;;1.30;;
10446;SDS011;5271;44.422;26.092;2023-03-21T05:56:58;1.23;;;1.23;;
10446;SDS011;5271;44.422;26.092;2023-03-21T05:59:25;1.30;;;1.30;;
10446;SDS011;5271;44.422;26.092;2023-03-21T06:01:52;1.30;;;1.30;;
10446;SDS011;5271;44.422;26.092;2023-03-21T06:04:19;1.30;;;1.30;;
10446;SDS011;5271;44.422;26.092;2023-03-21T06:06:46;1.40;;;1.40;;
10446;SDS011;5271;44.422;26.092;2023-03-21T06:09:14;1.40;;;1.40;;
10446;SDS011;5271;44.422;26.092;2023-03-21T06:11:43;1.08;;;1.08;;
10446;SDS011;5271;44.422;26.092;2023-03-21T06:14:13;1.10;;;1.10;;
10446;SDS011;5271;44.422;26.092;2023-03-21T06:16:40;1.20;;;1.20;;
10446;SDS011;5271;44.422;26.092;2023-03-21T06:19:07;1.20;;;1.20;;
10446;SDS011;5271;44.422;26.092;2023-03-21T06:21:33;1.20;;;1.20;;
10446;SDS011;5271;44.422;26.092;2023-03-21T06:24:00;1.20;;;1.20;;
10446;SDS011;5271;44.422;26.092;2023-03-21T06:26:29;1.30;;;1.30;;
10446;SDS011;5271;44.422;26.092;2023-03-21T06:28:56;1.23;;;1.23;;
10446;SDS011;5271;44.422;26.092;2023-03-21T06:31:22;1.30;;;1.30;;
10446;SDS011;5271;44.422;26.092;2023-03-21T06:33:50;1.30;;;1.30;;
10446;SDS011;5271;44.422;26.092;2023-03-21T06:36:17;1.30;;;1.30;;
10446;SDS011;5271;44.422;26.092;2023-03-21T06:38:45;1.30;;;1.30;;
10446;SDS011;5271;44.422;26.092;2023-03-21T06:41:12;1.30;;;1.30;;
10446;SDS011;5271;44.422;26.092;2023-03-21T06:43:41;1.40;;;1.40;;
10446;SDS011;5271;44.422;26.092;2023-03-21T06:46:09;1.30;;;1.30;;
10446;SDS011;5271;44.422;26.092;2023-03-21T06:48:36;1.20;;;1.20;;
10446;SDS011;5271;44.422;26.092;2023-03-21T06:51:08;1.30;;;1.30;;
10446;SDS011;5271;44.422;26.092;2023-03-21T06:53:36;1.30;;;1.30;;
10446;SDS011;5271;44.422;26.092;2023-03-21T06:56:03;1.40;;;1.40;;
10446;SDS011;5271;44.422;26.092;2023-03-21T06:58:31;1.30;;;1.30;;
10446;SDS011;5271;44.422;26.092;2023-03-21T07:00:59;1.40;;;1.40;;
10446;SDS011;5271;44.422;26.092;2023-03-21T07:03:27;1.40;;;1.40;;
10446;SDS011;5271;44.422;26.092;2023-03-21T07:05:54;1.30;;;1.30;;
10446;SDS011;5271;44.422;26.092;2023-03-21T07:08:21;1.30;;;1.30;;
10446;SDS011;5271;44.422;26.092;2023-03-21T07:10:47;1.30;;;1.30;;
10446;SDS011;5271;44.422;26.092;2023-03-21T07:13:15;1.40;;;1.40;;
10446;SDS011;5271;44.422;26.092;2023-03-21T07:15:42;1.40;;;1.40;;
10446;SDS011;5271;44.422;26.092;2023-03-21T07:18:10;1.40;;;1.40;;
10446;SDS011;5271;44.422;26.092;2023-03-21T07:20:37;1.30;;;1.30;;
10446;SDS011;5271;44.422;26.092;2023-03-21T07:23:03;1.37;;;1.37;;
10446;SDS011;5271;44.422;26.092;2023-03-21T07:25:31;1.30;;;1.30;;
10446;SDS011;5271;44.422;26.092;2023-03-21T07:27:58;1.20;;;1.20;;
10446;SDS011;5271;44.422;26.092;2023-03-21T07:30:25;1.30;;;1.30;;
10446;SDS011;5271;44.422;26.092;2023-03-21T07:32:53;1.30;;;1.30;;
10446;SDS011;5271;44.422;26.092;2023-03-21T07:35:21;1.40;;;1.40;;
10446;SDS011;5271;44.422;26.092;2023-03-21T07:37:48;1.30;;;1.30;;
10446;SDS011;5271;44.422;26.092;2023-03-21T07:40:15;1.30;;;1.30;;
10446;SDS011;5271;44.422;26.092;2023-03-21T07:42:42;1.30;;;1.30;;
10446;SDS011;5271;44.422;26.092;2023-03-21T07:45:09;1.20;;;1.20;;
10446;SDS011;5271;44.422;26.092;2023-03-21T07:47:39;1.20;;;1.20;;
10446;SDS011;5271;44.422;26.092;2023-03-21T07:50:06;1.20;;;1.20;;
10446;SDS011;5271;44.422;26.092;2023-03-21T07:52:35;1.10;;;1.10;;
10446;SDS011;5271;44.422;26.092;2023-03-21T07:55:02;1.10;;;1.10;;
10446;SDS011;5271;44.422;26.092;2023-03-21T07:57:29;1.00;;;1.00;;
10446;SDS011;5271;44.422;26.092;2023-03-21T07:59:56;1.10;;;1.10;;
10446;SDS011;5271;44.422;26.092;2023-03-21T08:02:23;1.10;;;1.10;;
10446;SDS011;5271;44.422;26.092;2023-03-21T08:04:51;1.00;;;1.00;;
10446;SDS011;5271;44.422;26.092;2023-03-21T08:07:18;1.00;;;1.00;;
10446;SDS011;5271;44.422;26.092;2023-03-21T08:09:46;1.00;;;1.00;;
10446;SDS011;5271;44.422;26.092;2023-03-21T08:12:13;1.00;;;1.00;;
10446;SDS011;5271;44.422;26.092;2023-03-21T08:14:40;0.90;;;0.90;;
10446;SDS011;5271;44.422;26.092;2023-03-21T08:17:07;0.80;;;0.80;;
10446;SDS011;5271;44.422;26.092;2023-03-21T08:19:35;0.80;;;0.80;;
10446;SDS011;5271;44.422;26.092;2023-03-21T08:22:02;0.80;;;0.80;;
10446;SDS011;5271;44.422;26.092;2023-03-21T08:24:30;0.70;;;0.70;;
10446;SDS011;5271;44.422;26.092;2023-03-21T08:26:59;0.70;;;0.70;;
10446;SDS011;5271;44.422;26.092;2023-03-21T08:29:26;0.70;;;0.70;;
10446;SDS011;5271;44.422;26.092;2023-03-21T08:31:53;0.70;;;0.70;;
10446;SDS011;5271;44.422;26.092;2023-03-21T08:34:20;0.60;;;0.60;;
10446;SDS011;5271;44.422;26.092;2023-03-21T08:36:48;0.60;;;0.60;;
10446;SDS011;5271;44.422;26.092;2023-03-21T08:39:15;0.60;;;0.60;;
10446;SDS011;5271;44.422;26.092;2023-03-21T08:41:42;0.60;;;0.60;;
10446;SDS011;5271;44.422;26.092;2023-03-21T08:44:10;0.60;;;0.60;;
10446;SDS011;5271;44.422;26.092;2023-03-21T08:46:37;0.60;;;0.60;;
10446;SDS011;5271;44.422;26.092;2023-03-21T08:49:03;0.50;;;0.50;;
10446;SDS011;5271;44.422;26.092;2023-03-21T08:51:30;0.60;;;0.60;;
10446;SDS011;5271;44.422;26.092;2023-03-21T08:53:57;0.50;;;0.50;;
10446;SDS011;5271;44.422;26.092;2023-03-21T08:56:24;0.60;;;0.60;;
10446;SDS011;5271;44.422;26.092;2023-03-21T08:58:51;0.60;;;0.60;;
10446;SDS011;5271;44.422;26.092;2023-03-21T09:01:19;0.50;;;0.50;;
10446;SDS011;5271;44.422;26.092;2023-03-21T09:03:46;0.50;;;0.50;;
10446;SDS011;5271;44.422;26.092;2023-03-21T09:06:13;0.60;;;0.60;;
10446;SDS011;5271;44.422;26.092;2023-03-21T09:08:41;0.60;;;0.60;;
10446;SDS011;5271;44.422;26.092;2023-03-21T09:11:10;0.60;;;0.60;;
10446;SDS011;5271;44.422;26.092;2023-03-21T09:13:37;0.70;;;0.70;;
10446;SDS011;5271;44.422;26.092;2023-03-21T09:16:07;0.70;;;0.70;;
10446;SDS011;5271;44.422;26.092;2023-03-21T09:18:35;0.70;;;0.70;;
10446;SDS011;5271;44.422;26.092;2023-03-21T09:21:11;0.70;;;0.70;;
10446;SDS011;5271;44.422;26.092;2023-03-21T09:23:38;0.70;;;0.70;;
10446;SDS011;5271;44.422;26.092;2023-03-21T09:26:06;0.70;;;0.70;;
10446;SDS011;5271;44.422;26.092;2023-03-21T09:28:33;0.70;;;0.70;;
10446;SDS011;5271;44.422;26.092;2023-03-21T09:31:01;0.70;;;0.70;;
10446;SDS011;5271;44.422;26.092;2023-03-21T09:33:29;0.70;;;0.70;;
10446;SDS011;5271;44.422;26.092;2023-03-21T09:35:58;0.80;;;0.80;;
10446;SDS011;5271;44.422;26.092;2023-03-21T09:38:25;0.70;;;0.70;;
10446;SDS011;5271;44.422;26.092;2023-03-21T09:41:01;0.80;;;0.80;;
10446;SDS011;5271;44.422;26.092;2023-03-21T09:43:39;0.80;;;0.80;;
10446;SDS011;5271;44.422;26.092;2023-03-21T09:46:16;0.70;;;0.70;;
10446;SDS011;5271;44.422;26.092;2023-03-21T09:48:53;0.70;;;0.70;;
10446;SDS011;5271;44.422;26.092;2023-03-21T09:51:26;0.70;;;0.70;;
10446;SDS011;5271;44.422;26.092;2023-03-21T09:54:03;0.70;;;0.70;;
10446;SDS011;5271;44.422;26.092;2023-03-21T09:56:34;0.70;;;0.70;;
10446;SDS011;5271;44.422;26.092;2023-03-21T09:59:04;0.70;;;0.70;;
10446;SDS011;5271;44.422;26.092;2023-03-21T10:01:35;0.70;;;0.70;;
10446;SDS011;5271;44.422;26.092;2023-03-21T10:04:10;0.70;;;0.70;;
10446;SDS011;5271;44.422;26.092;2023-03-21T10:06:42;0.70;;;0.70;;
10446;SDS011;5271;44.422;26.092;2023-03-21T10:09:12;0.80;;;0.80;;
10446;SDS011;5271;44.422;26.092;2023-03-21T10:11:47;0.80;;;0.80;;
10446;SDS011;5271;44.422;26.092;2023-03-21T10:14:17;0.70;;;0.70;;
10446;SDS011;5271;44.422;26.092;2023-03-21T10:16:48;0.70;;;0.70;;
10446;SDS011;5271;44.422;26.092;2023-03-21T10:19:18;0.80;;;0.80;;
10446;SDS011;5271;44.422;26.092;2023-03-21T10:21:47;0.73;;;0.73;;
10446;SDS011;5271;44.422;26.092;2023-03-21T10:24:15;0.80;;;0.80;;
10446;SDS011;5271;44.422;26.092;2023-03-21T10:26:44;0.70;;;0.70;;
10446;SDS011;5271;44.422;26.092;2023-03-21T10:29:13;0.70;;;0.70;;
10446;SDS011;5271;44.422;26.092;2023-03-21T10:31:42;0.70;;;0.70;;
10446;SDS011;5271;44.422;26.092;2023-03-21T10:34:12;0.73;;;0.73;;
10446;SDS011;5271;44.422;26.092;2023-03-21T10:36:42;0.70;;;0.70;;
10446;SDS011;5271;44.422;26.092;2023-03-21T10:39:14;0.80;;;0.80;;
10446;SDS011;5271;44.422;26.092;2023-03-21T10:41:47;0.70;;;0.70;;
10446;SDS011;5271;44.422;26.092;2023-03-21T10:44:15;0.80;;;0.80;;
10446;SDS011;5271;44.422;26.092;2023-03-21T10:46:48;0.70;;;0.70;;
10446;SDS011;5271;44.422;26.092;2023-03-21T10:49:17;0.70;;;0.70;;
10446;SDS011;5271;44.422;26.092;2023-03-21T10:51:45;0.70;;;0.70;;
10446;SDS011;5271;44.422;26.092;2023-03-21T10:54:17;0.70;;;0.70;;
10446;SDS011;5271;44.422;26.092;2023-03-21T10:56:48;0.70;;;0.70;;
10446;SDS011;5271;44.422;26.092;2023-03-21T10:59:23;0.70;;;0.70;;
10446;SDS011;5271;44.422;26.092;2023-03-21T11:01:54;0.70;;;0.70;;
10446;SDS011;5271;44.422;26.092;2023-03-21T11:04:23;0.80;;;0.80;;
10446;SDS011;5271;44.422;26.092;2023-03-21T11:06:52;0.80;;;0.80;;
10446;SDS011;5271;44.422;26.092;2023-03-21T11:09:23;0.80;;;0.80;;
10446;SDS011;5271;44.422;26.092;2023-03-21T11:11:52;0.70;;;0.70;;
10446;SDS011;5271;44.422;26.092;2023-03-21T11:14:32;0.70;;;0.70;;
10446;SDS011;5271;44.422;26.092;2023-03-21T11:17:06;0.70;;;0.70;;
10446;SDS011;5271;44.422;26.092;2023-03-21T11:19:46;0.60;;;0.60;;
10446;SDS011;5271;44.422;26.092;2023-03-21T11:22:14;0.60;;;0.60;;
10446;SDS011;5271;44.422;26.092;2023-03-21T11:24:47;0.60;;;0.60;;
10446;SDS011;5271;44.422;26.092;2023-03-21T11:27:16;0.70;;;0.70;;
10446;SDS011;5271;44.422;26.092;2023-03-21T11:29:44;0.63;;;0.63;;
10446;SDS011;5271;44.422;26.092;2023-03-21T11:32:18;0.70;;;0.70;;
10446;SDS011;5271;44.422;26.092;2023-03-21T11:34:48;0.70;;;0.70;;
10446;SDS011;5271;44.422;26.092;2023-03-21T11:37:18;0.60;;;0.60;;
10446;SDS011;5271;44.422;26.092;2023-03-21T11:39:54;0.60;;;0.60;;
10446;SDS011;5271;44.422;26.092;2023-03-21T11:42:26;0.60;;;0.60;;
10446;SDS011;5271;44.422;26.092;2023-03-21T11:44:59;0.60;;;0.60;;
10446;SDS011;5271;44.422;26.092;2023-03-21T11:47:29;0.70;;;0.70;;
10446;SDS011;5271;44.422;26.092;2023-03-21T11:49:56;0.60;;;0.60;;
10446;SDS011;5271;44.422;26.092;2023-03-21T11:52:26;0.60;;;0.60;;
10446;SDS011;5271;44.422;26.092;2023-03-21T11:55:07;0.60;;;0.60;;
10446;SDS011;5271;44.422;26.092;2023-03-21T11:57:57;0.60;;;0.60;;
10446;SDS011;5271;44.422;26.092;2023-03-21T12:00:35;0.60;;;0.60;;
10446;SDS011;5271;44.422;26.092;2023-03-21T12:03:15;0.60;;;0.60;;
10446;SDS011;5271;44.422;26.092;2023-03-21T12:06:04;0.60;;;0.60;;
10446;SDS011;5271;44.422;26.092;2023-03-21T12:08:40;0.60;;;0.60;;
10446;SDS011;5271;44.422;26.092;2023-03-21T12:11:18;0.60;;;0.60;;
10446;SDS011;5271;44.422;26.092;2023-03-21T12:13:56;0.60;;;0.60;;
10446;SDS011;5271;44.422;26.092;2023-03-21T12:16:35;0.60;;;0.60;;
10446;SDS011;5271;44.422;26.092;2023-03-21T12:22:23;0.60;;;0.60;;
10446;SDS011;5271;44.422;26.092;2023-03-21T12:24:58;0.60;;;0.60;;
10446;SDS011;5271;44.422;26.092;2023-03-21T12:27:35;0.60;;;0.60;;
10446;SDS011;5271;44.422;26.092;2023-03-21T12:30:12;0.60;;;0.60;;
10446;SDS011;5271;44.422;26.092;2023-03-21T12:32:54;0.57;;;0.57;;
10446;SDS011;5271;44.422;26.092;2023-03-21T12:35:36;0.60;;;0.60;;
10446;SDS011;5271;44.422;26.092;2023-03-21T12:38:14;0.50;;;0.50;;
10446;SDS011;5271;44.422;26.092;2023-03-21T12:40:49;0.50;;;0.50;;
10446;SDS011;5271;44.422;26.092;2023-03-21T12:43:41;0.50;;;0.50;;
10446;SDS011;5271;44.422;26.092;2023-03-21T12:46:14;0.60;;;0.60;;
10446;SDS011;5271;44.422;26.092;2023-03-21T12:48:47;0.60;;;0.60;;
10446;SDS011;5271;44.422;26.092;2023-03-21T12:51:17;0.60;;;0.60;;
10446;SDS011;5271;44.422;26.092;2023-03-21T12:53:49;0.50;;;0.50;;
10446;SDS011;5271;44.422;26.092;2023-03-21T12:56:22;0.50;;;0.50;;
10446;SDS011;5271;44.422;26.092;2023-03-21T12:58:56;0.60;;;0.60;;
10446;SDS011;5271;44.422;26.092;2023-03-21T13:01:27;0.60;;;0.60;;
10446;SDS011;5271;44.422;26.092;2023-03-21T13:04:04;0.60;;;0.60;;
10446;SDS011;5271;44.422;26.092;2023-03-21T13:06:34;0.60;;;0.60;;
10446;SDS011;5271;44.422;26.092;2023-03-21T13:09:04;0.53;;;0.53;;
10446;SDS011;5271;44.422;26.092;2023-03-21T13:11:38;0.50;;;0.50;;
10446;SDS011;5271;44.422;26.092;2023-03-21T13:14:07;0.50;;;0.50;;
10446;SDS011;5271;44.422;26.092;2023-03-21T13:16:40;0.60;;;0.60;;
10446;SDS011;5271;44.422;26.092;2023-03-21T13:19:14;0.50;;;0.50;;
10446;SDS011;5271;44.422;26.092;2023-03-21T13:21:49;0.50;;;0.50;;
10446;SDS011;5271;44.422;26.092;2023-03-21T13:24:25;0.50;;;0.50;;
10446;SDS011;5271;44.422;26.092;2023-03-21T13:27:00;0.60;;;0.60;;
10446;SDS011;5271;44.422;26.092;2023-03-21T13:29:32;0.50;;;0.50;;
10446;SDS011;5271;44.422;26.092;2023-03-21T13:32:09;0.50;;;0.50;;
10446;SDS011;5271;44.422;26.092;2023-03-21T13:34:48;0.50;;;0.50;;
10446;SDS011;5271;44.422;26.092;2023-03-21T13:37:20;0.50;;;0.50;;
10446;SDS011;5271;44.422;26.092;2023-03-21T13:39:50;0.60;;;0.60;;
10446;SDS011;5271;44.422;26.092;2023-03-21T13:42:19;0.50;;;0.50;;
10446;SDS011;5271;44.422;26.092;2023-03-21T13:44:51;0.50;;;0.50;;
10446;SDS011;5271;44.422;26.092;2023-03-21T13:47:33;0.50;;;0.50;;
10446;SDS011;5271;44.422;26.092;2023-03-21T13:50:20;0.50;;;0.50;;
10446;SDS011;5271;44.422;26.092;2023-03-21T13:55:59;0.50;;;0.50;;
10446;SDS011;5271;44.422;26.092;2023-03-21T13:58:49;0.50;;;0.50;;
10446;SDS011;5271;44.422;26.092;2023-03-21T14:01:28;0.50;;;0.50;;
10446;SDS011;5271;44.422;26.092;2023-03-21T14:03:59;0.50;;;0.50;;
10446;SDS011;5271;44.422;26.092;2023-03-21T14:06:36;0.50;;;0.50;;
10446;SDS011;5271;44.422;26.092;2023-03-21T14:09:08;0.60;;;0.60;;
10446;SDS011;5271;44.422;26.092;2023-03-21T14:11:40;0.50;;;0.50;;
10446;SDS011;5271;44.422;26.092;2023-03-21T14:14:08;0.50;;;0.50;;
10446;SDS011;5271;44.422;26.092;2023-03-21T14:16:37;0.50;;;0.50;;
10446;SDS011;5271;44.422;26.092;2023-03-21T14:19:04;0.50;;;0.50;;
10446;SDS011;5271;44.422;26.092;2023-03-21T14:21:32;0.40;;;0.40;;
10446;SDS011;5271;44.422;26.092;2023-03-21T14:24:01;0.40;;;0.40;;
10446;SDS011;5271;44.422;26.092;2023-03-21T14:26:31;0.50;;;0.50;;
10446;SDS011;5271;44.422;26.092;2023-03-21T14:29:00;0.50;;;0.50;;
10446;SDS011;5271;44.422;26.092;2023-03-21T14:31:29;0.50;;;0.50;;
10446;SDS011;5271;44.422;26.092;2023-03-21T14:33:58;0.43;;;0.43;;
10446;SDS011;5271;44.422;26.092;2023-03-21T14:36:28;0.50;;;0.50;;
10446;SDS011;5271;44.422;26.092;2023-03-21T14:39:01;0.50;;;0.50;;
10446;SDS011;5271;44.422;26.092;2023-03-21T14:41:31;0.50;;;0.50;;
10446;SDS011;5271;44.422;26.092;2023-03-21T14:44:07;0.50;;;0.50;;
10446;SDS011;5271;44.422;26.092;2023-03-21T14:46:41;0.50;;;0.50;;
10446;SDS011;5271;44.422;26.092;2023-03-21T14:49:17;0.50;;;0.50;;
10446;SDS011;5271;44.422;26.092;2023-03-21T14:51:46;0.50;;;0.50;;
10446;SDS011;5271;44.422;26.092;2023-03-21T14:54:14;0.50;;;0.50;;
10446;SDS011;5271;44.422;26.092;2023-03-21T14:56:43;0.50;;;0.50;;
10446;SDS011;5271;44.422;26.092;2023-03-21T14:59:13;0.50;;;0.50;;
10446;SDS011;5271;44.422;26.092;2023-03-21T15:01:41;0.50;;;0.50;;
10446;SDS011;5271;44.422;26.092;2023-03-21T15:04:11;0.50;;;0.50;;
10446;SDS011;5271;44.422;26.092;2023-03-21T15:06:51;0.50;;;0.50;;
10446;SDS011;5271;44.422;26.092;2023-03-21T15:09:22;0.50;;;0.50;;
10446;SDS011;5271;44.422;26.092;2023-03-21T15:11:54;0.50;;;0.50;;
10446;SDS011;5271;44.422;26.092;2023-03-21T15:14:24;0.40;;;0.40;;
10446;SDS011;5271;44.422;26.092;2023-03-21T15:16:54;0.50;;;0.50;;
10446;SDS011;5271;44.422;26.092;2023-03-21T15:19:26;0.40;;;0.40;;
10446;SDS011;5271;44.422;26.092;2023-03-21T15:21:57;0.50;;;0.50;;
10446;SDS011;5271;44.422;26.092;2023-03-21T15:24:30;0.50;;;0.50;;